createdAt,value
2022-12-23T00:01:25.552Z,17.87
2022-12-23T00:03:58.093Z,20.30
2022-12-23T00:06:26.775Z,16.77
2022-12-23T00:08:58.622Z,19.70
2022-12-23T00:11:29.746Z,21.77
2022-12-23T00:14:21.010Z,24.90
2022-12-23T00:16:50.904Z,36.13
2022-12-23T00:19:21.170Z,21.30
2022-12-23T00:21:49.864Z,25.80
2022-12-23T00:24:18.061Z,23.93
2022-12-23T00:26:46.265Z,22.10
2022-12-23T00:29:14.609Z,18.87
2022-12-23T00:31:42.838Z,17.17
2022-12-23T00:34:12.046Z,17.03
2022-12-23T00:36:41.762Z,17.80
2022-12-23T00:39:31.300Z,14.70
2022-12-23T00:42:16.778Z,14.57
2022-12-23T00:44:45.391Z,16.40
2022-12-23T00:47:36.314Z,17.97
2022-12-23T00:50:03.645Z,15.50
2022-12-23T00:52:33.306Z,15.83
2022-12-23T00:55:01.513Z,14.07
2022-12-23T00:57:29.688Z,16.30
2022-12-23T00:59:57.788Z,18.83
2022-12-23T01:02:43.468Z,14.57
2022-12-23T01:05:29.691Z,11.80
2022-12-23T01:07:59.409Z,11.77
2022-12-23T01:10:27.593Z,12.37
2022-12-23T01:12:55.993Z,14.27
2022-12-23T01:15:24.833Z,13.57
2022-12-23T01:17:53.736Z,16.63
2022-12-23T01:20:21.853Z,19.27
2022-12-23T01:22:50.304Z,16.87
2022-12-23T01:25:19.823Z,16.70
2022-12-23T01:27:48.049Z,16.47
2022-12-23T01:30:16.472Z,16.03
2022-12-23T01:32:44.737Z,14.27
2022-12-23T01:35:12.930Z,18.10
2022-12-23T01:37:41.488Z,17.60
2022-12-23T01:40:10.813Z,14.90
2022-12-23T01:42:45.096Z,19.50
2022-12-23T01:45:19.612Z,16.83
2022-12-23T01:47:53.833Z,21.53
2022-12-23T01:50:25.503Z,13.00
2022-12-23T01:53:06.966Z,11.90
2022-12-23T01:55:39.930Z,14.40
2022-12-23T01:58:14.592Z,13.13
2022-12-23T02:01:01.453Z,10.00
2022-12-23T02:03:46.341Z,10.40
2022-12-23T02:06:38.123Z,11.00
2022-12-23T02:09:18.389Z,15.77
2022-12-23T02:12:15.203Z,15.90
2022-12-23T02:15:19.521Z,23.40
2022-12-23T02:17:58.939Z,32.43
2022-12-23T02:21:11.396Z,18.27
2022-12-23T02:24:21.197Z,15.60
2022-12-23T02:27:11.392Z,13.10
2022-12-23T02:30:09.656Z,14.37
2022-12-23T02:32:54.953Z,11.97
2022-12-23T02:35:32.599Z,9.60
2022-12-23T02:38:10.537Z,11.33
2022-12-23T02:40:44.846Z,19.00
2022-12-23T02:43:19.370Z,14.87
2022-12-23T02:45:54.805Z,11.70
2022-12-23T02:48:32.372Z,13.50
2022-12-23T02:51:03.003Z,16.07
2022-12-23T02:53:35.738Z,16.10
2022-12-23T02:56:07.170Z,14.17
2022-12-23T02:58:41.616Z,12.87
2022-12-23T03:01:12.007Z,13.40
2022-12-23T03:03:43.036Z,15.00
2022-12-23T03:06:20.888Z,11.43
2022-12-23T03:08:50.950Z,9.40
2022-12-23T03:11:19.923Z,9.97
2022-12-23T03:14:16.899Z,10.23
2022-12-23T03:16:54.455Z,7.70
2022-12-23T03:19:29.315Z,16.40
2022-12-23T03:22:07.409Z,12.17
2022-12-23T03:24:42.632Z,10.63
2022-12-23T03:27:17.541Z,8.50
2022-12-23T03:29:55.996Z,13.53
2022-12-23T03:32:28.787Z,13.07
2022-12-23T03:35:01.853Z,12.63
2022-12-23T03:37:33.859Z,14.30
2022-12-23T03:40:06.257Z,16.17
2022-12-23T03:42:38.095Z,17.57
2022-12-23T03:48:07.097Z,22.87
2022-12-23T03:50:39.292Z,22.43
2022-12-23T03:53:18.747Z,17.87
2022-12-23T03:55:53.607Z,18.87
2022-12-23T03:58:40.715Z,29.80
2022-12-23T04:01:22.203Z,27.37
2022-12-23T04:04:00.228Z,25.40
2022-12-23T04:06:37.648Z,22.60
2022-12-23T04:09:06.695Z,23.20
2022-12-23T04:11:36.711Z,28.90
2022-12-23T04:14:04.850Z,26.03
2022-12-23T04:16:33.863Z,23.47
2022-12-23T04:19:02.211Z,23.57
2022-12-23T04:21:31.731Z,21.90
2022-12-23T04:23:59.905Z,23.70
2022-12-23T04:26:28.244Z,29.70
2022-12-23T04:28:56.551Z,20.83
2022-12-23T04:31:24.806Z,17.83
2022-12-23T04:33:53.208Z,14.27
2022-12-23T04:36:21.410Z,16.30
2022-12-23T04:38:51.116Z,15.40
2022-12-23T04:41:19.259Z,14.63
2022-12-23T04:43:53.092Z,17.40
2022-12-23T04:46:21.787Z,129.90
2022-12-23T04:48:49.994Z,34.17
2022-12-23T04:51:18.220Z,18.23
2022-12-23T04:53:46.428Z,17.47
2022-12-23T04:56:16.088Z,15.40
2022-12-23T04:58:44.214Z,12.03
2022-12-23T05:01:21.595Z,16.53
2022-12-23T05:03:49.692Z,17.00
2022-12-23T05:06:17.814Z,14.03
2022-12-23T05:08:45.950Z,21.23
2022-12-23T05:11:15.569Z,20.90
2022-12-23T05:13:43.951Z,20.30
2022-12-23T05:16:12.344Z,23.77
2022-12-23T05:18:40.615Z,14.70
2022-12-23T05:21:08.828Z,18.67
2022-12-23T05:23:37.062Z,14.33
2022-12-23T05:26:06.635Z,13.17
2022-12-23T05:28:36.486Z,18.60
2022-12-23T05:31:06.970Z,22.23
2022-12-23T05:33:36.267Z,25.93
2022-12-23T05:36:06.564Z,25.67
2022-12-23T05:38:34.924Z,19.40
2022-12-23T05:41:03.798Z,23.80
2022-12-23T05:43:32.295Z,28.23
2022-12-23T05:46:02.029Z,20.37
2022-12-23T05:48:30.227Z,18.00
2022-12-23T05:50:58.542Z,17.57
2022-12-23T05:53:27.084Z,18.80
2022-12-23T05:55:55.292Z,14.00
2022-12-23T05:58:24.100Z,19.97
2022-12-23T06:00:52.424Z,17.03
2022-12-23T06:03:22.281Z,17.47
2022-12-23T06:05:52.011Z,20.73
2022-12-23T06:08:20.574Z,16.83
2022-12-23T06:10:49.269Z,17.77
2022-12-23T06:13:17.484Z,17.33
2022-12-23T06:15:45.563Z,18.43
2022-12-23T06:18:13.751Z,23.47
2022-12-23T06:20:43.295Z,34.23
2022-12-23T06:23:11.437Z,50.33
2022-12-23T06:25:39.608Z,40.37
2022-12-23T06:28:08.397Z,64.13
2022-12-23T06:30:36.518Z,60.37
2022-12-23T06:33:04.819Z,52.53
2022-12-23T06:35:33.010Z,29.70
2022-12-23T06:38:03.336Z,33.73
2022-12-23T06:40:33.575Z,16.63
2022-12-23T06:43:01.666Z,14.00
2022-12-23T06:45:29.799Z,10.00
2022-12-23T06:47:57.929Z,9.40
2022-12-23T06:50:26.088Z,8.33
2022-12-23T06:52:54.164Z,9.00
2022-12-23T06:55:25.008Z,11.70
2022-12-23T06:57:53.201Z,11.00
2022-12-23T07:00:21.810Z,14.10
2022-12-23T07:02:50.096Z,11.00
2022-12-23T07:05:18.468Z,12.73
2022-12-23T07:07:46.534Z,9.40
2022-12-23T07:10:14.689Z,9.57
2022-12-23T07:12:50.399Z,13.63
2022-12-23T07:15:20.116Z,20.47
2022-12-23T07:17:48.308Z,8.83
2022-12-23T07:20:17.031Z,14.20
2022-12-23T07:22:45.237Z,10.87
2022-12-23T07:25:13.811Z,10.03
2022-12-23T07:27:43.831Z,29.73
2022-12-23T07:30:12.592Z,15.93
2022-12-23T07:32:41.889Z,17.13
2022-12-23T07:35:10.617Z,16.27
2022-12-23T07:37:38.733Z,21.03
2022-12-23T07:40:08.972Z,24.50
2022-12-23T07:42:46.595Z,24.53
2022-12-23T07:45:16.841Z,22.23
2022-12-23T07:47:45.259Z,27.03
2022-12-23T07:50:16.874Z,32.87
2022-12-23T07:52:44.977Z,30.07
2022-12-23T07:55:13.511Z,29.57
2022-12-23T07:57:42.747Z,35.70
2022-12-23T08:00:14.384Z,35.23
2022-12-23T08:02:44.280Z,42.10
2022-12-23T08:05:13.916Z,83.00
2022-12-23T08:07:42.399Z,55.17
2022-12-23T08:10:11.312Z,61.40
2022-12-23T08:12:39.492Z,68.77
2022-12-23T08:15:09.510Z,68.23
2022-12-23T08:17:37.630Z,68.50
2022-12-23T08:20:08.638Z,67.03
2022-12-23T08:22:37.041Z,80.23
2022-12-23T08:25:06.842Z,67.33
2022-12-23T08:27:35.848Z,80.23
2022-12-23T08:30:04.310Z,66.40
2022-12-23T08:32:32.424Z,64.47
2022-12-23T08:35:00.584Z,67.13
2022-12-23T08:37:30.139Z,68.00
2022-12-23T08:39:58.226Z,66.77
2022-12-23T08:42:26.603Z,72.27
2022-12-23T08:44:54.754Z,79.90
2022-12-23T08:47:23.002Z,73.33
2022-12-23T08:49:51.111Z,75.87
2022-12-23T08:52:19.227Z,71.20
2022-12-23T08:54:48.954Z,73.73
2022-12-23T08:57:17.140Z,63.90
2022-12-23T08:59:45.411Z,66.70
2022-12-23T09:02:13.966Z,64.13
2022-12-23T09:04:42.366Z,64.20
2022-12-23T09:07:10.667Z,65.80
2022-12-23T09:09:39.134Z,66.53
2022-12-23T09:12:08.882Z,63.97
2022-12-23T09:14:36.974Z,74.07
2022-12-23T09:17:05.361Z,64.37
2022-12-23T09:19:34.142Z,75.83
2022-12-23T09:22:02.367Z,74.13
2022-12-23T09:24:30.586Z,68.73
2022-12-23T09:26:58.934Z,84.80
2022-12-23T09:29:28.480Z,87.80
2022-12-23T09:31:56.603Z,78.60
2022-12-23T09:34:24.826Z,82.83
2022-12-23T09:36:55.431Z,82.83
2022-12-23T09:39:24.423Z,79.23
2022-12-23T09:42:06.461Z,67.00
2022-12-23T09:44:44.777Z,69.97
2022-12-23T09:47:16.785Z,68.50
2022-12-23T09:49:48.669Z,61.40
2022-12-23T09:52:25.310Z,84.50
2022-12-23T09:54:56.590Z,76.93
2022-12-23T09:57:32.541Z,76.80
2022-12-23T10:00:14.258Z,63.00
2022-12-23T10:03:06.738Z,68.33
2022-12-23T10:05:47.183Z,58.40
2022-12-23T10:08:22.338Z,71.50
2022-12-23T10:10:55.360Z,52.57
2022-12-23T10:13:29.853Z,43.90
2022-12-23T10:16:04.577Z,17.27
2022-12-23T10:18:43.240Z,14.23
2022-12-23T10:21:17.301Z,9.80
2022-12-23T10:23:50.642Z,11.40
2022-12-23T10:26:24.995Z,12.60
2022-12-23T10:29:01.401Z,24.23
2022-12-23T10:31:42.424Z,10.73
2022-12-23T10:34:19.889Z,9.03
2022-12-23T10:36:59.799Z,10.07
2022-12-23T10:39:38.221Z,12.63
2022-12-23T10:42:16.287Z,10.43
2022-12-23T10:45:22.400Z,12.43
2022-12-23T10:48:06.101Z,13.03
2022-12-23T10:50:48.542Z,17.80
2022-12-23T10:53:29.338Z,14.87
2022-12-23T10:55:58.541Z,15.47
2022-12-23T10:58:27.688Z,14.27
2022-12-23T11:00:58.039Z,23.10
2022-12-23T11:03:32.192Z,15.67
2022-12-23T11:06:03.695Z,16.53
2022-12-23T11:08:34.411Z,13.67
2022-12-23T11:11:02.903Z,14.40
2022-12-23T11:13:39.819Z,15.90
2022-12-23T11:16:25.188Z,11.23
2022-12-23T11:19:03.346Z,16.80
2022-12-23T11:21:34.724Z,12.13
2022-12-23T11:24:15.802Z,17.00
2022-12-23T11:26:44.621Z,12.43
2022-12-23T11:29:19.040Z,15.73
2022-12-23T11:31:47.639Z,17.17
2022-12-23T11:34:19.984Z,17.83
2022-12-23T11:36:56.497Z,22.30
2022-12-23T11:39:31.180Z,22.13
2022-12-23T11:42:07.431Z,24.10
2022-12-23T11:44:40.909Z,11.33
2022-12-23T11:47:29.348Z,17.77
2022-12-23T11:50:01.471Z,21.53
2022-12-23T11:52:32.753Z,16.33
2022-12-23T11:55:02.673Z,20.10
2022-12-23T11:57:39.458Z,30.17
2022-12-23T12:00:10.219Z,27.37
2022-12-23T12:02:42.350Z,31.77
2022-12-23T12:05:22.850Z,27.43
2022-12-23T12:07:53.427Z,25.33
2022-12-23T12:10:26.461Z,25.57
2022-12-23T12:12:58.318Z,22.17
2022-12-23T12:15:37.192Z,30.07
2022-12-23T12:18:10.117Z,25.67
2022-12-23T12:20:43.723Z,31.97
2022-12-23T12:23:19.068Z,35.47
2022-12-23T12:25:53.734Z,25.60
2022-12-23T12:28:26.157Z,38.00
2022-12-23T12:31:00.045Z,33.47
2022-12-23T12:33:35.051Z,33.20
2022-12-23T12:36:14.144Z,36.27
2022-12-23T12:38:44.452Z,32.07
2022-12-23T12:41:20.574Z,43.63
2022-12-23T12:43:54.053Z,37.67
2022-12-23T12:46:31.826Z,30.27
2022-12-23T12:49:07.242Z,30.23
2022-12-23T12:51:41.687Z,38.53
2022-12-23T12:54:20.395Z,30.70
2022-12-23T12:56:51.164Z,39.10
2022-12-23T12:59:22.826Z,35.83
2022-12-23T13:02:24.239Z,35.63
2022-12-23T13:05:12.345Z,46.80
2022-12-23T13:07:53.289Z,36.00
2022-12-23T13:10:35.230Z,39.83
2022-12-23T13:13:11.268Z,53.13
2022-12-23T13:15:49.041Z,39.20
2022-12-23T13:18:31.761Z,45.03
2022-12-23T13:21:06.995Z,35.20
2022-12-23T13:23:44.814Z,38.13
2022-12-23T13:26:24.973Z,39.57
2022-12-23T13:29:02.773Z,45.67
2022-12-23T13:31:41.791Z,46.43
2022-12-23T13:34:22.620Z,48.00
2022-12-23T13:36:59.643Z,44.87
2022-12-23T13:39:40.904Z,42.93
2022-12-23T13:42:13.627Z,45.30
2022-12-23T13:44:41.995Z,41.43
2022-12-23T13:47:20.134Z,37.93
2022-12-23T13:49:59.180Z,47.20
2022-12-23T13:52:41.633Z,52.77
2022-12-23T13:55:23.361Z,52.77
2022-12-23T13:57:58.208Z,41.33
2022-12-23T14:00:30.308Z,46.77
2022-12-23T14:03:20.198Z,45.63
2022-12-23T14:05:50.807Z,59.77
2022-12-23T14:08:42.091Z,63.70
2022-12-23T14:11:19.465Z,48.03
2022-12-23T14:13:56.282Z,49.73
2022-12-23T14:16:47.225Z,44.40
2022-12-23T14:19:42.724Z,34.10
2022-12-23T14:22:47.129Z,31.17
2022-12-23T14:25:34.586Z,27.07
2022-12-23T14:28:17.484Z,31.83
2022-12-23T14:30:46.268Z,27.70
2022-12-23T14:33:25.330Z,37.10
2022-12-23T14:36:15.993Z,40.30
2022-12-23T14:38:44.165Z,43.50
2022-12-23T14:41:26.693Z,62.13
2022-12-23T14:44:01.806Z,46.17
2022-12-23T14:46:56.663Z,56.07
2022-12-23T14:49:39.880Z,51.57
2022-12-23T14:52:44.628Z,56.70
2022-12-23T14:55:41.187Z,45.87
2022-12-23T14:58:25.918Z,47.03
2022-12-23T15:01:02.216Z,54.90
2022-12-23T15:03:35.001Z,55.80
2022-12-23T15:06:07.348Z,66.93
2022-12-23T15:08:40.383Z,68.30
2022-12-23T15:11:10.942Z,63.83
2022-12-23T15:13:39.850Z,58.23
2022-12-23T15:16:17.280Z,65.83
2022-12-23T15:18:54.944Z,62.77
2022-12-23T15:21:31.844Z,58.87
2022-12-23T15:24:00.273Z,68.63
2022-12-23T15:26:31.589Z,66.37
2022-12-23T15:29:02.352Z,70.93
2022-12-23T15:31:37.171Z,76.20
2022-12-23T15:34:16.592Z,93.47
2022-12-23T15:36:48.619Z,66.63
2022-12-23T15:39:21.198Z,80.53
2022-12-23T15:41:50.127Z,79.97
2022-12-23T15:44:21.680Z,83.43
2022-12-23T15:46:52.205Z,67.83
2022-12-23T15:49:21.903Z,63.10
2022-12-23T15:52:13.989Z,67.67
2022-12-23T15:54:47.739Z,63.03
2022-12-23T15:57:21.454Z,66.50
2022-12-23T15:59:50.422Z,75.70
2022-12-23T16:02:58.867Z,68.27
2022-12-23T16:05:32.617Z,71.77
2022-12-23T16:08:12.065Z,80.93
2022-12-23T16:10:41.331Z,83.40
2022-12-23T16:13:18.672Z,83.70
2022-12-23T16:15:47.900Z,73.63
2022-12-23T16:18:28.636Z,67.00
2022-12-23T16:21:00.680Z,55.77
2022-12-23T16:23:31.964Z,62.83
2022-12-23T16:26:02.281Z,51.53
2022-12-23T16:28:38.626Z,65.00
2022-12-23T16:31:08.942Z,84.37
2022-12-23T16:33:43.846Z,79.40
2022-12-23T16:36:23.795Z,71.17
2022-12-23T16:38:53.864Z,77.73
2022-12-23T16:41:22.152Z,64.40
2022-12-23T16:43:52.827Z,62.17
2022-12-23T16:46:23.776Z,55.33
2022-12-23T16:48:55.881Z,46.57
2022-12-23T16:51:27.393Z,50.03
2022-12-23T16:54:02.298Z,46.53
2022-12-23T16:56:37.407Z,52.60
2022-12-23T16:59:06.337Z,54.17
2022-12-23T17:01:39.535Z,55.47
2022-12-23T17:04:10.361Z,57.07
2022-12-23T17:06:41.859Z,52.10
2022-12-23T17:09:11.680Z,62.50
2022-12-23T17:11:44.682Z,56.43
2022-12-23T17:14:21.323Z,80.77
2022-12-23T17:16:50.093Z,88.33
2022-12-23T17:19:29.310Z,105.20
2022-12-23T17:22:04.151Z,64.57
2022-12-23T17:24:32.481Z,55.53
2022-12-23T17:27:00.870Z,56.77
2022-12-23T17:29:29.199Z,85.27
2022-12-23T17:31:57.921Z,55.10
2022-12-23T17:34:27.577Z,54.63
2022-12-23T17:36:55.956Z,64.23
2022-12-23T17:39:27.124Z,50.53
2022-12-23T17:41:55.524Z,48.63
2022-12-23T17:44:24.119Z,38.97
2022-12-23T17:46:52.247Z,37.43
2022-12-23T17:49:20.520Z,42.00
2022-12-23T17:51:50.479Z,52.43
2022-12-23T17:54:23.849Z,43.67
2022-12-23T17:56:52.749Z,50.80
2022-12-23T17:59:21.701Z,47.63
2022-12-23T18:01:50.299Z,45.50
2022-12-23T18:04:18.692Z,42.40
2022-12-23T18:06:46.958Z,47.77
2022-12-23T18:09:16.898Z,47.57
2022-12-23T18:11:47.355Z,64.60
2022-12-23T18:14:18.802Z,40.40
2022-12-23T18:16:47.842Z,46.97
2022-12-23T18:19:19.940Z,41.93
2022-12-23T18:21:48.548Z,37.93
2022-12-23T18:24:18.775Z,27.83
2022-12-23T18:26:47.652Z,28.43
2022-12-23T18:29:16.313Z,29.80
2022-12-23T18:31:51.627Z,29.23
2022-12-23T18:34:21.531Z,25.87
2022-12-23T18:36:51.717Z,27.13
2022-12-23T18:39:21.855Z,29.83
2022-12-23T18:41:50.243Z,28.93
2022-12-23T18:44:21.168Z,32.53
2022-12-23T18:46:50.237Z,34.70
2022-12-23T18:49:18.565Z,34.60
2022-12-23T18:51:46.944Z,36.10
2022-12-23T18:54:15.735Z,34.67
2022-12-23T18:56:45.680Z,33.13
2022-12-23T18:59:27.344Z,39.87
2022-12-23T19:01:57.481Z,31.20
2022-12-23T19:04:26.341Z,26.07
2022-12-23T19:06:55.999Z,38.57
2022-12-23T19:09:26.037Z,51.13
2022-12-23T19:11:55.567Z,66.77
2022-12-23T19:14:23.848Z,58.57
2022-12-23T19:16:52.809Z,38.93
2022-12-23T19:19:24.079Z,46.20
2022-12-23T19:21:52.913Z,30.63
2022-12-23T19:24:21.056Z,39.53
2022-12-23T19:26:49.273Z,35.93
2022-12-23T19:29:18.920Z,31.50
2022-12-23T19:31:47.083Z,28.83
2022-12-23T19:34:16.011Z,29.43
2022-12-23T19:36:44.721Z,33.20
2022-12-23T19:39:16.620Z,33.73
2022-12-23T19:41:45.621Z,33.50
2022-12-23T19:44:14.036Z,33.93
2022-12-23T19:46:43.903Z,36.13
2022-12-23T19:49:17.754Z,37.83
2022-12-23T19:51:47.935Z,44.63
2022-12-23T19:54:16.183Z,42.50
2022-12-23T19:56:44.691Z,39.43
2022-12-23T19:59:14.085Z,39.33
2022-12-23T20:01:43.769Z,40.40
2022-12-23T20:04:12.544Z,39.67
2022-12-23T20:06:41.944Z,41.63
2022-12-23T20:09:12.356Z,47.90
2022-12-23T20:11:42.639Z,33.20
2022-12-23T20:14:11.781Z,33.23
2022-12-23T20:16:41.861Z,40.53
2022-12-23T20:19:12.380Z,36.10
2022-12-23T20:21:40.454Z,32.53
2022-12-23T20:24:09.189Z,31.43
2022-12-23T20:26:37.403Z,31.30
2022-12-23T20:29:05.684Z,34.90
2022-12-23T20:31:35.599Z,32.40
2022-12-23T20:34:03.865Z,33.40
2022-12-23T20:36:35.702Z,43.90
2022-12-23T20:39:05.132Z,33.97
2022-12-23T20:41:33.945Z,36.80
2022-12-23T20:44:32.975Z,33.00
2022-12-23T20:46:50.519Z,32.63
2022-12-23T20:49:18.633Z,31.57
2022-12-23T20:51:48.214Z,32.87
2022-12-23T20:54:16.324Z,42.83
2022-12-23T20:56:44.450Z,48.90
2022-12-23T20:59:12.652Z,39.47
2022-12-23T21:01:42.770Z,39.70
2022-12-23T21:04:13.008Z,38.13
2022-12-23T21:06:41.437Z,47.53
2022-12-23T21:09:12.599Z,41.90
2022-12-23T21:11:43.592Z,34.30
2022-12-23T21:14:12.089Z,42.60
2022-12-23T21:16:40.394Z,32.13
2022-12-23T21:19:10.124Z,31.63
2022-12-23T21:21:38.234Z,31.83
2022-12-23T21:24:06.933Z,32.30
2022-12-23T21:26:36.609Z,39.10
2022-12-23T21:29:06.584Z,37.23
2022-12-23T21:31:37.332Z,30.27
2022-12-23T21:34:06.512Z,36.13
2022-12-23T21:36:37.804Z,54.13
2022-12-23T21:39:06.791Z,33.40
2022-12-23T21:41:38.894Z,40.17
2022-12-23T21:44:07.410Z,39.90
2022-12-23T21:46:35.812Z,42.43
2022-12-23T21:49:04.401Z,54.17
2022-12-23T21:51:41.928Z,60.87
2022-12-23T21:54:11.125Z,70.30
2022-12-23T21:56:41.863Z,63.47
2022-12-23T21:59:13.586Z,63.20
2022-12-23T22:01:42.305Z,57.87
2022-12-23T22:04:10.701Z,43.93
2022-12-23T22:06:41.389Z,38.83
2022-12-23T22:09:11.795Z,40.33
2022-12-23T22:11:41.431Z,45.17
2022-12-23T22:14:12.809Z,46.23
2022-12-23T22:16:40.969Z,40.30
2022-12-23T22:19:09.870Z,44.13
2022-12-23T22:21:39.776Z,39.43
2022-12-23T22:24:08.570Z,37.93
2022-12-23T22:26:37.001Z,40.33
2022-12-23T22:29:07.730Z,40.27
2022-12-23T22:31:40.090Z,36.20
2022-12-23T22:34:10.326Z,31.17
2022-12-23T22:36:38.518Z,31.80
2022-12-23T22:39:07.998Z,31.37
2022-12-23T22:41:36.713Z,33.07
2022-12-23T22:44:06.547Z,22.80
2022-12-23T22:46:34.725Z,26.63
2022-12-23T22:49:02.772Z,23.87
2022-12-23T22:51:32.591Z,23.63
2022-12-23T22:54:03.597Z,23.50
2022-12-23T22:56:31.815Z,22.43
2022-12-23T22:58:59.934Z,21.03
2022-12-23T23:01:31.812Z,20.97
2022-12-23T23:04:01.326Z,20.10
2022-12-23T23:06:31.753Z,21.57
2022-12-23T23:09:00.094Z,19.30
2022-12-23T23:11:29.045Z,22.63
2022-12-23T23:13:57.219Z,21.87
2022-12-23T23:16:26.398Z,21.90
2022-12-23T23:18:56.432Z,21.27
2022-12-23T23:21:24.600Z,23.23
2022-12-23T23:23:52.887Z,22.13
2022-12-23T23:26:21.962Z,19.40
2022-12-23T23:28:50.251Z,22.47
2022-12-23T23:34:08.016Z,24.90
2022-12-23T23:36:36.180Z,22.77
2022-12-23T23:39:04.351Z,19.20
2022-12-23T23:41:32.997Z,20.40
2022-12-23T23:44:01.124Z,18.07
2022-12-23T23:46:30.745Z,19.87
2022-12-23T23:48:58.982Z,19.33
2022-12-23T23:51:28.903Z,17.40
2022-12-23T23:53:57.153Z,22.20
2022-12-23T23:56:27.288Z,25.43
2022-12-23T23:58:57.092Z,20.33
